EDT,Max TemperatureF,Mean TemperatureF,Min TemperatureF,Max Dew PointF,MeanDew PointF,Min DewpointF,Max Humidity, Mean Humidity, Min Humidity, Max Sea Level PressureIn, Mean Sea Level PressureIn, Min Sea Level PressureIn, Max VisibilityMiles, Mean VisibilityMiles, Min VisibilityMiles, Max Wind SpeedMPH, Mean Wind SpeedMPH, Max Gust SpeedMPH,PrecipitationIn, CloudCover, Events, WindDirDegrees
2013-6-1,64,55,46,59,52,45,94,91,82,29.75,29.67,29.64,10,4,0,13,7,18,0.00,7,Fog-Rain,176
2013-6-2,50,44,37,43,37,32,93,79,50,30.02,29.85,29.67,10,9,3,22,16,36,0.00,6,Rain,334
2013-6-3,60,44,28,43,32,21,93,61,30,30.14,30.05,30.01,10,10,10,16,6,28,0.00,0,,312
2013-6-4,60,45,30,43,33,27,93,59,27,30.23,30.19,30.14,10,10,10,10,2,,0.00,1,,209
2013-6-5,53,50,46,46,45,43,93,80,67,30.21,30.17,30.11,10,10,7,12,2,18,0.00,8,Rain,81
2013-6-6,66,58,50,45,40,27,76,57,24,30.11,30.05,30.00,10,10,10,13,7,17,0.00,7,,62
2013-6-7,71,58,46,43,39,32,81,51,28,30.01,29.97,29.92,10,10,10,14,7,17,0.00,3,,341
2013-6-8,66,54,42,48,42,32,87,63,30,30.06,29.99,29.94,10,10,10,12,4,,0.00,0,,224
2013-6-9,71,55,39,52,46,37,93,64,41,30.12,30.06,29.99,10,9,0,14,4,21,0.00,1,Fog,101
2013-6-10,66,63,60,55,51,48,73,66,59,29.99,29.92,29.88,10,10,10,15,9,20,0.00,5,,94
2013-6-11,,,,,,,,,,,,,,,,,,,,,,
2013-6-12,,,,,,,,,,,,,,,,,,,,,,
2013-6-13,64,57,49,51,48,42,76,67,61,30.06,30.02,29.97,10,10,10,22,16,31,0.00,2,,339
2013-6-14,67,54,41,43,40,32,89,62,30,30.16,30.09,30.03,10,10,10,13,6,16,0.00,0,,333
2013-6-15,63,53,43,52,47,39,95,80,60,30.03,29.95,29.82,10,10,7,13,3,,0.00,4,,176
2013-6-16,80,66,52,61,55,50,99,76,36,29.84,29.78,29.73,10,9,3,17,6,23,0.05,5,Rain,286
2013-6-17,62,53,43,54,50,40,100,84,60,30.06,29.94,29.83,10,9,0,13,6,20,0.05,4,Fog-Rain,346
2013-6-18,65,50,36,47,41,35,95,67,39,30.14,30.10,30.06,10,10,10,13,6,,0.00,0,,322
2013-6-19,62,49,36,50,43,35,97,73,47,30.18,30.13,30.08,10,10,7,12,3,17,0.00,0,,185
2013-6-20,64,57,50,52,49,46,89,74,54,30.17,30.12,30.08,10,10,10,14,7,17,0.00,2,,185
2013-6-21,64,60,56,63,56,51,99,86,75,30.16,30.03,29.91,10,8,2,15,6,22,0.47,7,Rain,123
2013-6-22,68,61,54,62,59,55,100,93,79,30.09,30.03,29.95,10,6,0,12,6,18,0.01,6,Fog,337
2013-6-23,63,59,55,61,59,56,100,95,86,30.01,29.92,29.85,10,4,0,13,5,17,0.01,5,Fog-Rain,161
2013-6-24,67,60,52,63,59,53,99,91,79,29.95,29.89,29.82,10,6,2,14,6,20,0.00,3,,187
2013-6-25,77,67,57,69,61,56,98,88,69,29.85,29.82,29.79,10,9,2,14,5,21,0.00,2,,197
2013-6-26,73,65,57,66,62,58,100,86,72,29.83,29.79,29.75,10,8,0,13,4,20,0.27,3,Fog-Rain,176
2013-6-27,71,66,60,65,63,60,99,92,76,29.78,29.73,29.66,10,10,4,13,3,16,0.05,3,Rain,194
2013-6-28,70,62,55,66,61,55,99,92,78,29.68,29.64,29.61,10,10,3,16,4,22,0.20,5,Rain,348
2013-6-29,73,64,56,58,55,46,96,75,55,29.85,29.73,29.67,10,10,10,16,10,25,0.00,4,,348
2013-6-30,77,63,49,49,44,42,79,51,30,30.07,29.97,29.86,10,10,10,17,9,26,0.00,0,,359